createdAt,value
2023-02-06T00:00:48.454Z,8.50
2023-02-06T00:03:16.505Z,8.50
2023-02-06T00:05:44.586Z,8.50
2023-02-06T00:08:12.640Z,8.50
2023-02-06T00:10:40.660Z,8.60
2023-02-06T00:13:08.659Z,8.60
2023-02-06T00:15:37.009Z,8.50
2023-02-06T00:18:06.772Z,8.50
2023-02-06T00:20:34.830Z,8.50
2023-02-06T00:23:02.910Z,8.40
2023-02-06T00:25:30.925Z,8.30
2023-02-06T00:27:58.964Z,8.30
2023-02-06T00:30:27.056Z,8.30
2023-02-06T00:32:55.079Z,8.30
2023-02-06T00:35:24.501Z,8.40
2023-02-06T00:37:52.519Z,8.40
2023-02-06T00:40:20.722Z,8.50
2023-02-06T00:42:48.750Z,8.50
2023-02-06T00:45:16.922Z,8.40
2023-02-06T00:47:44.931Z,8.50
2023-02-06T00:50:13.376Z,8.40
2023-02-06T00:52:42.819Z,8.40
2023-02-06T00:55:10.855Z,8.40
2023-02-06T00:57:38.869Z,8.30
2023-02-06T01:00:07.735Z,8.30
2023-02-06T01:02:35.844Z,8.30
2023-02-06T01:05:03.920Z,8.30
2023-02-06T01:07:31.976Z,8.40
2023-02-06T01:10:01.452Z,8.40
2023-02-06T01:12:29.490Z,8.40
2023-02-06T01:14:57.513Z,8.50
2023-02-06T01:17:25.585Z,8.50
2023-02-06T01:19:53.672Z,8.50
2023-02-06T01:22:21.691Z,8.40
2023-02-06T01:24:50.201Z,8.40
2023-02-06T01:27:19.646Z,8.40
2023-02-06T01:29:47.678Z,8.30
2023-02-06T01:32:15.731Z,8.30
2023-02-06T01:34:43.820Z,8.30
2023-02-06T01:37:11.878Z,8.40
2023-02-06T01:39:39.927Z,8.40
2023-02-06T01:42:07.956Z,8.40
2023-02-06T01:44:37.383Z,8.40
2023-02-06T01:47:05.478Z,8.40
2023-02-06T01:49:36.257Z,8.40
2023-02-06T01:52:05.734Z,8.40
2023-02-06T01:54:33.761Z,8.30
2023-02-06T01:57:03.587Z,8.30
2023-02-06T01:59:31.598Z,8.20
2023-02-06T02:02:01.073Z,8.30
2023-02-06T02:04:29.160Z,8.30
2023-02-06T02:07:01.534Z,8.30
2023-02-06T02:09:29.909Z,8.40
2023-02-06T02:11:57.934Z,8.40
2023-02-06T02:14:25.971Z,8.40
2023-02-06T02:17:03.568Z,8.40
2023-02-06T02:20:05.430Z,8.40
2023-02-06T02:22:50.135Z,8.40
2023-02-06T02:25:33.786Z,8.40
2023-02-06T02:28:35.930Z,8.20
2023-02-06T02:31:22.841Z,8.10
2023-02-06T02:34:23.740Z,8.10
2023-02-06T02:36:53.700Z,8.10
2023-02-06T02:39:24.272Z,8.10
2023-02-06T02:41:54.326Z,8.20
2023-02-06T02:44:26.234Z,8.20
2023-02-06T02:46:55.247Z,8.30
2023-02-06T02:49:26.256Z,8.30
2023-02-06T02:51:55.729Z,8.30
2023-02-06T02:54:23.746Z,8.30
2023-02-06T02:56:51.757Z,8.30
2023-02-06T02:59:23.962Z,8.30
2023-02-06T03:01:53.982Z,8.20
2023-02-06T03:04:24.095Z,8.10
2023-02-06T03:07:01.109Z,8.10
2023-02-06T03:09:37.898Z,8.20
2023-02-06T03:12:13.215Z,8.20
2023-02-06T03:14:42.658Z,8.30
2023-02-06T03:17:11.638Z,8.30
2023-02-06T03:19:41.470Z,8.30
2023-02-06T03:22:13.839Z,8.30
2023-02-06T03:24:41.883Z,8.30
2023-02-06T03:27:12.859Z,8.30
2023-02-06T03:29:40.868Z,8.30
2023-02-06T03:32:11.756Z,8.20
2023-02-06T03:34:41.773Z,8.20
2023-02-06T03:37:09.817Z,8.10
2023-02-06T03:39:39.201Z,8.20
2023-02-06T03:42:07.310Z,8.20
2023-02-06T03:44:36.381Z,8.20
2023-02-06T03:47:04.441Z,8.30
2023-02-06T03:49:33.205Z,8.30
2023-02-06T03:52:03.133Z,8.30
2023-02-06T03:54:31.170Z,8.30
2023-02-06T03:57:01.313Z,8.30
2023-02-06T03:59:29.356Z,8.30
2023-02-06T04:01:58.063Z,8.30
2023-02-06T04:04:29.295Z,8.20
2023-02-06T04:06:57.781Z,8.10
2023-02-06T04:09:25.778Z,8.10
2023-02-06T04:11:53.917Z,8.20
2023-02-06T04:14:23.324Z,8.30
2023-02-06T04:16:51.348Z,8.30
2023-02-06T04:19:19.579Z,8.30
2023-02-06T04:21:47.621Z,8.30
2023-02-06T04:24:15.646Z,8.30
2023-02-06T04:26:43.681Z,8.30
2023-02-06T04:29:12.857Z,8.30
2023-02-06T04:31:42.266Z,8.30
2023-02-06T04:34:10.328Z,8.20
2023-02-06T04:36:38.624Z,8.20
2023-02-06T04:39:06.814Z,8.10
2023-02-06T04:41:34.830Z,8.10
2023-02-06T04:44:02.863Z,8.10
2023-02-06T04:46:30.874Z,8.20
2023-02-06T04:49:00.257Z,8.10
2023-02-06T04:51:28.255Z,8.10
2023-02-06T04:53:56.292Z,8.20
2023-02-06T04:56:25.565Z,8.30
2023-02-06T04:58:53.586Z,8.30
2023-02-06T05:01:21.683Z,8.30
2023-02-06T05:03:50.286Z,8.30
2023-02-06T05:06:19.644Z,8.30
2023-02-06T05:08:47.808Z,8.30
2023-02-06T05:11:15.841Z,8.10
2023-02-06T05:13:43.859Z,8.20
2023-02-06T05:16:13.744Z,8.10
2023-02-06T05:18:41.973Z,8.20
2023-02-06T05:21:10.022Z,8.30
2023-02-06T05:23:39.379Z,8.30
2023-02-06T05:26:07.403Z,8.30
2023-02-06T05:28:35.495Z,8.30
2023-02-06T05:31:09.872Z,8.30
2023-02-06T05:33:37.932Z,8.30
2023-02-06T05:36:07.264Z,8.30
2023-02-06T05:38:35.290Z,8.30
2023-02-06T05:41:04.731Z,8.20
2023-02-06T05:43:33.796Z,8.10
2023-02-06T05:46:01.920Z,8.10
2023-02-06T05:48:30.643Z,8.10
2023-02-06T05:50:58.775Z,8.20
2023-02-06T05:53:26.778Z,8.20
2023-02-06T05:55:54.815Z,8.30
2023-02-06T05:58:24.256Z,8.30
2023-02-06T06:00:52.474Z,8.30
2023-02-06T06:03:20.516Z,8.30
2023-02-06T06:05:48.525Z,8.30
2023-02-06T06:08:16.629Z,8.30
2023-02-06T06:10:44.677Z,8.20
2023-02-06T06:13:12.721Z,8.20
2023-02-06T06:15:42.308Z,8.20
2023-02-06T06:18:11.143Z,8.20
2023-02-06T06:20:39.158Z,8.20
2023-02-06T06:23:07.200Z,8.30
2023-02-06T06:25:36.603Z,8.30
2023-02-06T06:28:04.880Z,8.30
2023-02-06T06:30:34.855Z,8.40
2023-02-06T06:33:05.045Z,8.30
2023-02-06T06:35:33.077Z,8.30
2023-02-06T06:38:01.084Z,8.30
2023-02-06T06:40:29.382Z,8.20
2023-02-06T06:42:57.376Z,8.10
2023-02-06T06:45:25.410Z,8.10
2023-02-06T06:47:53.516Z,8.00
2023-02-06T06:50:22.971Z,8.10
2023-02-06T06:52:50.971Z,8.10
2023-02-06T06:55:19.604Z,8.10
2023-02-06T06:57:47.674Z,8.10
2023-02-06T07:00:16.900Z,8.20
2023-02-06T07:02:44.984Z,8.20
2023-02-06T07:05:13.053Z,8.20
2023-02-06T07:07:42.440Z,8.30
2023-02-06T07:10:10.759Z,8.30
2023-02-06T07:12:38.822Z,8.20
2023-02-06T07:15:07.596Z,8.10
2023-02-06T07:17:35.661Z,8.10
2023-02-06T07:20:03.734Z,8.10
2023-02-06T07:22:31.760Z,8.00
2023-02-06T07:25:01.141Z,8.10
2023-02-06T07:27:29.158Z,8.10
2023-02-06T07:29:57.155Z,8.10
2023-02-06T07:32:25.172Z,8.20
2023-02-06T07:34:53.203Z,8.20
2023-02-06T07:37:21.243Z,8.30
2023-02-06T07:39:49.269Z,8.20
2023-02-06T07:42:18.941Z,8.30
2023-02-06T07:44:46.945Z,8.20
2023-02-06T07:47:14.973Z,8.10
2023-02-06T07:49:42.973Z,8.10
2023-02-06T07:52:11.005Z,8.20
2023-02-06T07:54:38.987Z,8.30
2023-02-06T07:57:07.010Z,8.30
2023-02-06T07:59:36.421Z,8.30
2023-02-06T08:02:04.449Z,8.30
2023-02-06T08:04:35.327Z,8.20
2023-02-06T08:07:03.396Z,8.30
2023-02-06T08:09:31.744Z,8.30
2023-02-06T08:11:59.799Z,8.30
2023-02-06T08:14:28.569Z,8.20
2023-02-06T08:16:58.006Z,8.20
2023-02-06T08:19:26.069Z,8.10
2023-02-06T08:21:54.093Z,8.20
2023-02-06T08:24:22.109Z,8.20
2023-02-06T08:26:50.213Z,8.30
2023-02-06T08:29:18.218Z,8.30
2023-02-06T08:31:46.327Z,8.20
2023-02-06T08:34:15.843Z,8.30
2023-02-06T08:36:44.015Z,8.30
2023-02-06T08:39:12.755Z,8.30
2023-02-06T08:41:41.483Z,8.30
2023-02-06T08:44:11.881Z,8.30
2023-02-06T08:46:40.022Z,8.20
2023-02-06T08:49:09.396Z,8.10
2023-02-06T08:51:38.790Z,8.10
2023-02-06T08:54:07.708Z,8.20
2023-02-06T08:56:36.345Z,8.20
2023-02-06T08:59:04.465Z,8.20
2023-02-06T09:01:33.883Z,8.20
2023-02-06T09:04:02.913Z,8.20
2023-02-06T09:06:30.957Z,8.20
2023-02-06T09:09:00.457Z,8.30
2023-02-06T09:11:28.663Z,8.20
2023-02-06T09:13:57.318Z,8.30
2023-02-06T09:16:25.526Z,8.30
2023-02-06T09:18:54.339Z,8.30
2023-02-06T09:21:23.481Z,8.20
2023-02-06T09:23:52.422Z,8.20
2023-02-06T09:26:23.712Z,8.20
2023-02-06T09:28:52.961Z,8.20
2023-02-06T09:31:21.003Z,8.40
2023-02-06T09:33:49.086Z,8.30
2023-02-06T09:36:17.953Z,8.10
2023-02-06T09:38:47.043Z,8.20
2023-02-06T09:41:18.094Z,8.30
2023-02-06T09:43:51.254Z,8.30
2023-02-06T09:46:21.263Z,8.30
2023-02-06T09:48:49.353Z,8.40
2023-02-06T09:51:20.473Z,8.30
2023-02-06T09:53:51.958Z,8.30
2023-02-06T09:56:23.884Z,8.20
2023-02-06T09:58:56.933Z,8.20
2023-02-06T10:01:27.628Z,8.30
2023-02-06T10:04:10.125Z,8.30
2023-02-06T10:06:42.009Z,8.30
2023-02-06T10:09:12.267Z,8.30
2023-02-06T10:11:45.233Z,8.40
2023-02-06T10:14:19.212Z,8.40
2023-02-06T10:16:48.426Z,8.40
2023-02-06T10:19:18.943Z,8.40
2023-02-06T10:21:49.448Z,8.40
2023-02-06T10:24:20.894Z,8.30
2023-02-06T10:26:49.156Z,8.30
2023-02-06T10:29:22.545Z,8.30
2023-02-06T10:32:08.932Z,8.30
2023-02-06T10:34:45.962Z,8.40
2023-02-06T10:37:21.196Z,8.50
2023-02-06T10:40:15.911Z,8.40
2023-02-06T10:42:51.283Z,8.40
2023-02-06T10:45:28.125Z,8.40
2023-02-06T10:47:58.280Z,8.50
2023-02-06T10:50:28.803Z,8.50
2023-02-06T10:52:58.543Z,8.50
2023-02-06T10:55:27.935Z,8.40
2023-02-06T10:58:01.349Z,8.30
2023-02-06T11:00:30.742Z,8.30
2023-02-06T11:03:07.427Z,8.30
2023-02-06T11:05:36.663Z,8.40
2023-02-06T11:08:10.746Z,8.40
2023-02-06T11:10:39.236Z,8.40
2023-02-06T11:13:08.460Z,8.50
2023-02-06T11:15:41.287Z,8.50
2023-02-06T11:18:11.064Z,8.50
2023-02-06T11:20:39.717Z,8.40
2023-02-06T11:23:18.583Z,8.50
2023-02-06T11:25:46.783Z,8.50
2023-02-06T11:28:16.368Z,8.50
2023-02-06T11:30:55.884Z,8.50
2023-02-06T11:33:26.388Z,8.40
2023-02-06T11:35:55.784Z,8.40
2023-02-06T11:38:25.074Z,8.40
2023-02-06T11:40:57.483Z,8.50
2023-02-06T11:43:26.364Z,8.40
2023-02-06T11:46:15.443Z,8.50
2023-02-06T11:48:44.542Z,8.50
2023-02-06T11:51:13.836Z,8.50
2023-02-06T11:53:56.009Z,8.50
2023-02-06T11:56:24.015Z,8.50
2023-02-06T11:59:02.858Z,8.50
2023-02-06T12:01:43.032Z,8.60
2023-02-06T12:04:23.558Z,8.60
2023-02-06T12:06:54.444Z,8.40
2023-02-06T12:09:22.810Z,8.40
2023-02-06T12:11:52.996Z,8.50
2023-02-06T12:14:22.960Z,8.50
2023-02-06T12:16:52.517Z,8.50
2023-02-06T12:19:22.598Z,8.50
2023-02-06T12:21:51.600Z,8.50
2023-02-06T12:24:26.870Z,8.60
2023-02-06T12:26:55.240Z,8.70
2023-02-06T12:29:25.668Z,8.60
2023-02-06T12:31:58.528Z,8.50
2023-02-06T12:34:31.708Z,8.60
2023-02-06T12:37:10.987Z,8.50
2023-02-06T12:39:38.924Z,8.50
2023-02-06T12:42:17.135Z,8.50
2023-02-06T12:44:47.958Z,8.50
2023-02-06T12:47:20.038Z,8.60
2023-02-06T12:49:52.292Z,8.60
2023-02-06T12:52:23.183Z,8.60
2023-02-06T12:54:52.425Z,8.60
2023-02-06T12:57:22.170Z,8.70
2023-02-06T13:00:19.566Z,8.60
2023-02-06T13:03:04.591Z,8.50
2023-02-06T13:05:35.203Z,8.50
2023-02-06T13:08:08.187Z,8.40
2023-02-06T13:10:36.414Z,8.50
2023-02-06T13:13:04.569Z,8.40
2023-02-06T13:15:35.752Z,8.50
2023-02-06T13:18:20.248Z,8.50
2023-02-06T13:21:15.547Z,8.50
2023-02-06T13:23:50.342Z,8.40
2023-02-06T13:26:18.357Z,8.50
2023-02-06T13:29:14.150Z,8.60
2023-02-06T13:31:42.212Z,8.60
2023-02-06T13:34:15.908Z,8.60
2023-02-06T13:36:52.440Z,8.60
2023-02-06T13:39:33.805Z,8.50
2023-02-06T13:42:29.676Z,8.50
2023-02-06T13:44:57.633Z,8.40
2023-02-06T13:47:44.255Z,8.50
2023-02-06T13:50:29.393Z,8.50
2023-02-06T13:53:14.515Z,8.60
2023-02-06T13:55:52.162Z,8.50
2023-02-06T13:58:30.829Z,8.60
2023-02-06T14:00:58.805Z,8.60
2023-02-06T14:03:27.493Z,8.70
2023-02-06T14:06:00.314Z,8.70
2023-02-06T14:08:31.465Z,8.60
2023-02-06T14:11:09.646Z,8.60
2023-02-06T14:13:45.152Z,8.60
2023-02-06T14:16:22.449Z,8.50
2023-02-06T14:18:53.542Z,8.50
2023-02-06T14:21:30.017Z,8.50
2023-02-06T14:24:07.357Z,8.50
2023-02-06T14:26:39.285Z,8.50
2023-02-06T14:29:16.672Z,8.60
2023-02-06T14:31:54.174Z,8.60
2023-02-06T14:34:29.581Z,8.70
2023-02-06T14:37:07.850Z,8.70
2023-02-06T14:39:47.172Z,8.60
2023-02-06T14:42:20.342Z,8.60
2023-02-06T14:44:51.328Z,8.50
2023-02-06T14:47:20.325Z,8.50
2023-02-06T14:49:48.248Z,8.40
2023-02-06T14:52:20.034Z,8.60
2023-02-06T14:54:47.995Z,8.60
2023-02-06T14:57:18.599Z,8.50
2023-02-06T14:59:57.885Z,8.60
2023-02-06T15:02:31.508Z,8.60
2023-02-06T15:04:59.761Z,8.70
2023-02-06T15:07:31.888Z,8.60
2023-02-06T15:10:03.025Z,8.50
2023-02-06T15:12:32.180Z,8.40
2023-02-06T15:15:02.830Z,8.50
2023-02-06T15:17:31.461Z,8.40
2023-02-06T15:20:15.938Z,8.40
2023-02-06T15:22:45.263Z,8.40
2023-02-06T15:25:23.619Z,8.40
2023-02-06T15:27:51.633Z,8.50
2023-02-06T15:30:20.390Z,8.50
2023-02-06T15:32:49.572Z,8.50
2023-02-06T15:35:21.872Z,8.50
2023-02-06T15:37:51.280Z,8.60
2023-02-06T15:40:20.936Z,8.60
2023-02-06T15:42:48.921Z,8.50
2023-02-06T15:45:19.047Z,8.60
2023-02-06T15:47:47.068Z,8.60
2023-02-06T15:50:18.240Z,8.40
2023-02-06T15:52:47.554Z,8.50
2023-02-06T15:55:30.475Z,8.40
2023-02-06T15:57:59.116Z,8.30
2023-02-06T16:00:28.574Z,8.50
2023-02-06T16:02:58.311Z,8.50
2023-02-06T16:05:28.033Z,8.60
2023-02-06T16:07:56.224Z,8.60
2023-02-06T16:10:25.423Z,8.60
2023-02-06T16:12:55.162Z,8.50
2023-02-06T16:15:29.639Z,8.50
2023-02-06T16:17:58.358Z,8.50
2023-02-06T16:20:32.492Z,8.50
2023-02-06T16:23:19.918Z,8.40
2023-02-06T16:25:48.097Z,8.40
2023-02-06T16:28:22.906Z,8.50
2023-02-06T16:30:55.114Z,8.50
2023-02-06T16:33:28.389Z,8.50
2023-02-06T16:35:56.456Z,8.50
2023-02-06T16:38:24.474Z,8.50
2023-02-06T16:40:55.566Z,8.50
2023-02-06T16:43:24.978Z,8.40
2023-02-06T16:45:53.003Z,8.40
2023-02-06T16:48:21.069Z,8.50
2023-02-06T16:50:49.112Z,8.50
2023-02-06T16:53:20.290Z,8.50
2023-02-06T16:55:48.352Z,8.40
2023-02-06T16:58:18.083Z,8.40
2023-02-06T17:00:47.938Z,8.50
2023-02-06T17:03:17.451Z,8.50
2023-02-06T17:05:45.942Z,8.50
2023-02-06T17:08:18.060Z,8.50
2023-02-06T17:10:46.768Z,8.50
2023-02-06T17:13:15.989Z,8.50
2023-02-06T17:15:44.151Z,8.40
2023-02-06T17:18:15.809Z,8.40
2023-02-06T17:20:44.773Z,8.30
2023-02-06T17:23:12.832Z,8.30
2023-02-06T17:25:41.095Z,8.20
2023-02-06T17:28:09.271Z,8.40
2023-02-06T17:30:37.983Z,8.40
2023-02-06T17:33:06.407Z,8.50
2023-02-06T17:35:36.902Z,8.40
2023-02-06T17:38:05.048Z,8.50
2023-02-06T17:40:33.962Z,8.50
2023-02-06T17:43:04.508Z,8.50
2023-02-06T17:45:32.554Z,8.40
2023-02-06T17:48:00.726Z,8.40
2023-02-06T17:50:29.130Z,8.30
2023-02-06T17:53:00.323Z,8.40
2023-02-06T17:55:28.497Z,8.40
2023-02-06T17:57:57.561Z,8.20
2023-02-06T18:00:26.141Z,8.40
2023-02-06T18:02:54.629Z,8.40
2023-02-06T18:05:22.974Z,8.50
2023-02-06T18:07:51.878Z,8.40
2023-02-06T18:10:22.432Z,8.40
2023-02-06T18:12:50.544Z,8.40
2023-02-06T18:15:18.572Z,8.40
2023-02-06T18:17:46.660Z,8.40
2023-02-06T18:20:16.992Z,8.30
2023-02-06T18:22:45.102Z,8.30
2023-02-06T18:25:15.308Z,8.30
2023-02-06T18:27:47.708Z,8.30
2023-02-06T18:30:17.259Z,8.40
2023-02-06T18:32:46.091Z,8.40
2023-02-06T18:35:14.922Z,8.40
2023-02-06T18:37:43.277Z,8.50
2023-02-06T18:40:12.298Z,8.40
2023-02-06T18:42:54.694Z,8.40
2023-02-06T18:45:25.006Z,8.40
2023-02-06T18:47:53.196Z,8.40
2023-02-06T18:50:22.070Z,8.30
2023-02-06T18:52:50.429Z,8.30
2023-02-06T18:55:18.589Z,8.10
2023-02-06T18:57:46.719Z,8.30
2023-02-06T19:00:15.725Z,8.30
2023-02-06T19:02:45.180Z,8.40
2023-02-06T19:05:13.526Z,8.30
2023-02-06T19:07:41.723Z,8.30
2023-02-06T19:10:10.977Z,8.40
2023-02-06T19:12:39.251Z,8.40
2023-02-06T19:15:08.257Z,8.40
2023-02-06T19:17:36.378Z,8.40
2023-02-06T19:20:07.779Z,8.30
2023-02-06T19:22:36.043Z,8.20
2023-02-06T19:25:04.199Z,8.20
2023-02-06T19:27:32.272Z,8.20
2023-02-06T19:30:00.471Z,8.20
2023-02-06T19:32:29.298Z,8.20
2023-02-06T19:34:57.933Z,8.20
2023-02-06T19:37:27.387Z,8.30
2023-02-06T19:39:55.451Z,8.40
2023-02-06T19:42:23.532Z,8.40
2023-02-06T19:44:53.880Z,8.40
2023-02-06T19:47:22.232Z,8.40
2023-02-06T19:49:52.232Z,8.40
2023-02-06T19:52:20.414Z,8.40
2023-02-06T19:54:49.873Z,8.30
2023-02-06T19:57:19.429Z,8.30
2023-02-06T19:59:47.821Z,8.30
2023-02-06T20:02:16.482Z,8.30
2023-02-06T20:04:45.367Z,8.30
2023-02-06T20:07:13.460Z,8.30
2023-02-06T20:09:42.731Z,8.30
2023-02-06T20:12:12.540Z,8.30
2023-02-06T20:14:40.871Z,8.40
2023-02-06T20:17:08.975Z,8.40
2023-02-06T20:19:37.128Z,8.40
2023-02-06T20:22:05.522Z,8.40
2023-02-06T20:24:33.698Z,8.30
2023-02-06T20:27:02.707Z,8.20
2023-02-06T20:29:33.803Z,8.20
2023-02-06T20:32:02.046Z,8.30
2023-02-06T20:34:31.024Z,8.30
2023-02-06T20:36:59.365Z,8.40
2023-02-06T20:39:27.675Z,8.40
2023-02-06T20:41:55.776Z,8.40
2023-02-06T20:44:23.767Z,8.40
2023-02-06T20:46:53.368Z,8.50
2023-02-06T20:49:22.365Z,8.40
2023-02-06T20:51:50.534Z,8.40
2023-02-06T20:54:18.921Z,8.40
2023-02-06T20:56:48.333Z,8.20
2023-02-06T20:59:17.349Z,8.30
2023-02-06T21:01:45.406Z,8.30
2023-02-06T21:04:16.681Z,8.20
2023-02-06T21:06:44.896Z,8.00
2023-02-06T21:09:12.880Z,8.40
2023-02-06T21:11:41.918Z,8.30
2023-02-06T21:14:10.229Z,8.40
2023-02-06T21:16:38.753Z,8.40
2023-02-06T21:19:07.334Z,8.40
2023-02-06T21:21:37.232Z,8.40
2023-02-06T21:24:05.711Z,8.30
2023-02-06T21:26:33.766Z,8.30
2023-02-06T21:29:02.468Z,8.20
2023-02-06T21:31:36.054Z,8.20
2023-02-06T21:34:07.245Z,8.20
2023-02-06T21:36:37.651Z,8.20
2023-02-06T21:39:05.951Z,8.30
2023-02-06T21:41:33.976Z,8.30
2023-02-06T21:44:01.933Z,8.30
2023-02-06T21:46:30.943Z,8.30
2023-02-06T21:48:59.019Z,8.30
2023-02-06T21:51:27.086Z,8.30
2023-02-06T21:53:56.486Z,8.30
2023-02-06T21:56:25.806Z,8.40
2023-02-06T21:58:53.852Z,8.30
2023-02-06T22:01:23.294Z,8.30
2023-02-06T22:03:51.286Z,8.10
2023-02-06T22:06:20.060Z,8.30
2023-02-06T22:08:51.852Z,8.20
2023-02-06T22:11:22.460Z,8.30
2023-02-06T22:13:50.642Z,8.30
2023-02-06T22:16:19.838Z,8.30
2023-02-06T22:18:47.951Z,8.40
2023-02-06T22:21:17.384Z,8.40
2023-02-06T22:23:45.848Z,8.30
2023-02-06T22:26:15.627Z,8.30
2023-02-06T22:28:45.202Z,8.30
2023-02-06T22:31:14.295Z,8.30
2023-02-06T22:33:42.531Z,8.20
2023-02-06T22:36:12.104Z,8.20
2023-02-06T22:38:40.330Z,8.20
2023-02-06T22:41:09.626Z,8.20
2023-02-06T22:43:38.304Z,8.30
2023-02-06T22:46:08.072Z,8.30
2023-02-06T22:48:36.653Z,8.30
2023-02-06T22:51:05.971Z,8.30
2023-02-06T22:53:34.096Z,8.40
2023-02-06T22:56:20.518Z,8.40
2023-02-06T22:58:48.609Z,8.30
2023-02-06T23:01:18.934Z,8.20
2023-02-06T23:03:47.130Z,8.20
2023-02-06T23:06:16.106Z,8.20
2023-02-06T23:08:47.446Z,8.30
2023-02-06T23:11:15.633Z,8.30
2023-02-06T23:13:43.873Z,8.20
2023-02-06T23:16:11.979Z,8.30
2023-02-06T23:18:41.420Z,8.40
2023-02-06T23:21:11.141Z,8.40
2023-02-06T23:23:39.185Z,8.30
2023-02-06T23:26:10.100Z,8.30
2023-02-06T23:28:38.505Z,8.30
2023-02-06T23:31:06.953Z,8.30
2023-02-06T23:33:35.332Z,8.20
2023-02-06T23:36:05.829Z,8.10
2023-02-06T23:38:33.974Z,8.10
2023-02-06T23:41:07.450Z,8.00
2023-02-06T23:43:35.722Z,8.10
2023-02-06T23:46:03.970Z,8.10
2023-02-06T23:48:32.320Z,8.10
2023-02-06T23:51:03.361Z,8.20
2023-02-06T23:53:32.802Z,8.20
2023-02-06T23:56:00.906Z,8.30
2023-02-06T23:58:29.040Z,8.20
